sensor_id;sensor_type;location;lat;lon;timestamp;temperature;humidity
7494;DHT22;3788;49.902;8.590;2023-05-10T00:02:01;14.30;99.90
7494;DHT22;3788;49.902;8.590;2023-05-10T00:04:28;14.30;99.90
7494;DHT22;3788;49.902;8.590;2023-05-10T00:06:55;14.30;99.90
7494;DHT22;3788;49.902;8.590;2023-05-10T00:09:23;14.30;99.90
7494;DHT22;3788;49.902;8.590;2023-05-10T00:11:49;14.30;99.90
7494;DHT22;3788;49.902;8.590;2023-05-10T00:14:16;14.30;99.90
7494;DHT22;3788;49.902;8.590;2023-05-10T00:16:43;14.30;99.90
7494;DHT22;3788;49.902;8.590;2023-05-10T00:19:10;14.30;99.90
7494;DHT22;3788;49.902;8.590;2023-05-10T00:21:37;14.20;99.90
7494;DHT22;3788;49.902;8.590;2023-05-10T00:24:04;14.20;99.90
7494;DHT22;3788;49.902;8.590;2023-05-10T00:26:32;14.20;99.90
7494;DHT22;3788;49.902;8.590;2023-05-10T00:28:59;14.20;99.90
7494;DHT22;3788;49.902;8.590;2023-05-10T00:31:25;14.20;99.90
7494;DHT22;3788;49.902;8.590;2023-05-10T00:33:52;14.20;99.90
7494;DHT22;3788;49.902;8.590;2023-05-10T00:36:19;14.20;99.90
7494;DHT22;3788;49.902;8.590;2023-05-10T00:38:48;14.10;99.90
7494;DHT22;3788;49.902;8.590;2023-05-10T00:41:15;14.10;99.90
7494;DHT22;3788;49.902;8.590;2023-05-10T00:43:45;14.10;99.90
7494;DHT22;3788;49.902;8.590;2023-05-10T00:46:12;14.10;99.90
7494;DHT22;3788;49.902;8.590;2023-05-10T00:48:40;14.10;99.90
7494;DHT22;3788;49.902;8.590;2023-05-10T00:51:07;14.10;99.90
7494;DHT22;3788;49.902;8.590;2023-05-10T00:53:37;14.10;99.90
7494;DHT22;3788;49.902;8.590;2023-05-10T00:56:03;14.10;99.90
7494;DHT22;3788;49.902;8.590;2023-05-10T00:58:31;14.10;99.90
7494;DHT22;3788;49.902;8.590;2023-05-10T01:01:00;14.10;99.90
7494;DHT22;3788;49.902;8.590;2023-05-10T01:03:28;14.10;99.90
7494;DHT22;3788;49.902;8.590;2023-05-10T01:05:55;14.10;99.90
7494;DHT22;3788;49.902;8.590;2023-05-10T01:08:22;14.10;99.90
7494;DHT22;3788;49.902;8.590;2023-05-10T01:10:48;14.10;99.90
7494;DHT22;3788;49.902;8.590;2023-05-10T01:13:22;14.10;99.90
7494;DHT22;3788;49.902;8.590;2023-05-10T01:15:51;14.10;99.90
7494;DHT22;3788;49.902;8.590;2023-05-10T01:18:22;14.10;99.90
7494;DHT22;3788;49.902;8.590;2023-05-10T01:21:00;14.10;99.90
7494;DHT22;3788;49.902;8.590;2023-05-10T01:23:41;14.10;99.90
7494;DHT22;3788;49.902;8.590;2023-05-10T01:29:38;14.10;99.90
7494;DHT22;3788;49.902;8.590;2023-05-10T01:32:29;14.10;99.90
7494;DHT22;3788;49.902;8.590;2023-05-10T01:35:02;14.10;99.90
7494;DHT22;3788;49.902;8.590;2023-05-10T01:37:36;14.10;99.90
7494;DHT22;3788;49.902;8.590;2023-05-10T01:40:14;14.10;99.90
7494;DHT22;3788;49.902;8.590;2023-05-10T01:42:50;14.10;99.90
7494;DHT22;3788;49.902;8.590;2023-05-10T01:45:24;14.10;99.90
7494;DHT22;3788;49.902;8.590;2023-05-10T01:48:02;14.10;99.90
7494;DHT22;3788;49.902;8.590;2023-05-10T01:50:32;14.00;99.90
7494;DHT22;3788;49.902;8.590;2023-05-10T01:53:00;14.00;99.90
7494;DHT22;3788;49.902;8.590;2023-05-10T01:55:30;14.00;99.90
7494;DHT22;3788;49.902;8.590;2023-05-10T01:58:02;14.00;99.90
7494;DHT22;3788;49.902;8.590;2023-05-10T02:00:31;14.00;99.90
7494;DHT22;3788;49.902;8.590;2023-05-10T02:03:00;14.00;99.90
7494;DHT22;3788;49.902;8.590;2023-05-10T02:05:30;14.00;99.90
7494;DHT22;3788;49.902;8.590;2023-05-10T02:07:59;14.00;99.90
7494;DHT22;3788;49.902;8.590;2023-05-10T02:10:28;14.00;99.90
7494;DHT22;3788;49.902;8.590;2023-05-10T02:12:55;13.90;99.90
7494;DHT22;3788;49.902;8.590;2023-05-10T02:15:25;14.00;99.90
7494;DHT22;3788;49.902;8.590;2023-05-10T02:17:54;13.90;99.90
7494;DHT22;3788;49.902;8.590;2023-05-10T02:20:24;14.00;99.90
7494;DHT22;3788;49.902;8.590;2023-05-10T02:22:54;14.00;99.90
7494;DHT22;3788;49.902;8.590;2023-05-10T02:25:22;14.00;99.90
7494;DHT22;3788;49.902;8.590;2023-05-10T02:27:50;13.90;99.90
7494;DHT22;3788;49.902;8.590;2023-05-10T02:30:18;14.00;99.90
7494;DHT22;3788;49.902;8.590;2023-05-10T02:32:49;14.00;99.90
7494;DHT22;3788;49.902;8.590;2023-05-10T02:35:17;13.90;99.90
7494;DHT22;3788;49.902;8.590;2023-05-10T02:37:47;13.90;99.90
7494;DHT22;3788;49.902;8.590;2023-05-10T02:40:16;13.90;99.90
7494;DHT22;3788;49.902;8.590;2023-05-10T02:42:44;13.90;99.90
7494;DHT22;3788;49.902;8.590;2023-05-10T02:45:15;13.90;99.90
7494;DHT22;3788;49.902;8.590;2023-05-10T02:47:43;13.90;99.90
7494;DHT22;3788;49.902;8.590;2023-05-10T02:50:10;13.90;99.90
7494;DHT22;3788;49.902;8.590;2023-05-10T02:52:39;13.90;99.90
7494;DHT22;3788;49.902;8.590;2023-05-10T02:55:09;13.90;99.90
7494;DHT22;3788;49.902;8.590;2023-05-10T02:57:41;13.90;99.90
7494;DHT22;3788;49.902;8.590;2023-05-10T03:00:10;13.90;99.90
7494;DHT22;3788;49.902;8.590;2023-05-10T03:02:37;13.90;99.90
7494;DHT22;3788;49.902;8.590;2023-05-10T03:05:04;13.90;99.90
7494;DHT22;3788;49.902;8.590;2023-05-10T03:07:31;13.90;99.90
7494;DHT22;3788;49.902;8.590;2023-05-10T03:09:58;13.90;99.90
7494;DHT22;3788;49.902;8.590;2023-05-10T03:12:33;13.90;99.90
7494;DHT22;3788;49.902;8.590;2023-05-10T03:15:10;13.90;99.90
7494;DHT22;3788;49.902;8.590;2023-05-10T03:17:45;13.90;99.90
7494;DHT22;3788;49.902;8.590;2023-05-10T03:20:20;13.80;99.90
7494;DHT22;3788;49.902;8.590;2023-05-10T03:22:51;13.80;99.90
7494;DHT22;3788;49.902;8.590;2023-05-10T03:25:19;13.90;99.90
7494;DHT22;3788;49.902;8.590;2023-05-10T03:27:49;13.80;99.90
7494;DHT22;3788;49.902;8.590;2023-05-10T03:30:16;13.80;99.90
7494;DHT22;3788;49.902;8.590;2023-05-10T03:32:44;13.80;99.90
7494;DHT22;3788;49.902;8.590;2023-05-10T03:35:12;13.80;99.90
7494;DHT22;3788;49.902;8.590;2023-05-10T03:37:39;13.80;99.90
7494;DHT22;3788;49.902;8.590;2023-05-10T03:40:07;13.80;99.90
7494;DHT22;3788;49.902;8.590;2023-05-10T03:42:34;13.80;99.90
7494;DHT22;3788;49.902;8.590;2023-05-10T03:45:02;13.80;99.90
7494;DHT22;3788;49.902;8.590;2023-05-10T03:47:29;13.80;99.90
7494;DHT22;3788;49.902;8.590;2023-05-10T03:49:56;13.80;99.90
7494;DHT22;3788;49.902;8.590;2023-05-10T03:52:23;13.80;99.90
7494;DHT22;3788;49.902;8.590;2023-05-10T03:54:49;13.80;99.90
7494;DHT22;3788;49.902;8.590;2023-05-10T03:57:16;13.80;99.90
7494;DHT22;3788;49.902;8.590;2023-05-10T03:59:43;13.90;99.90
7494;DHT22;3788;49.902;8.590;2023-05-10T04:02:12;13.80;99.90
7494;DHT22;3788;49.902;8.590;2023-05-10T04:04:39;13.90;99.90
7494;DHT22;3788;49.902;8.590;2023-05-10T04:07:05;13.80;99.90
7494;DHT22;3788;49.902;8.590;2023-05-10T04:09:32;13.90;99.90
7494;DHT22;3788;49.902;8.590;2023-05-10T04:11:59;13.90;99.90
7494;DHT22;3788;49.902;8.590;2023-05-10T04:14:25;13.90;99.90
7494;DHT22;3788;49.902;8.590;2023-05-10T04:16:52;13.90;99.90
7494;DHT22;3788;49.902;8.590;2023-05-10T04:19:20;13.90;99.90
7494;DHT22;3788;49.902;8.590;2023-05-10T04:21:47;13.90;99.90
7494;DHT22;3788;49.902;8.590;2023-05-10T04:24:14;13.90;99.90
7494;DHT22;3788;49.902;8.590;2023-05-10T04:26:40;14.00;99.90
7494;DHT22;3788;49.902;8.590;2023-05-10T04:29:07;14.00;99.90
7494;DHT22;3788;49.902;8.590;2023-05-10T04:31:34;14.00;99.90
7494;DHT22;3788;49.902;8.590;2023-05-10T04:34:01;14.00;99.90
7494;DHT22;3788;49.902;8.590;2023-05-10T04:36:29;14.00;99.90
7494;DHT22;3788;49.902;8.590;2023-05-10T04:38:57;14.10;99.90
7494;DHT22;3788;49.902;8.590;2023-05-10T04:41:24;14.00;99.90
7494;DHT22;3788;49.902;8.590;2023-05-10T04:43:51;14.10;99.90
7494;DHT22;3788;49.902;8.590;2023-05-10T04:46:18;14.10;99.90
7494;DHT22;3788;49.902;8.590;2023-05-10T04:48:44;14.10;99.90
7494;DHT22;3788;49.902;8.590;2023-05-10T04:51:11;14.10;99.90
7494;DHT22;3788;49.902;8.590;2023-05-10T04:53:39;14.10;99.90
7494;DHT22;3788;49.902;8.590;2023-05-10T04:56:06;14.10;99.90
7494;DHT22;3788;49.902;8.590;2023-05-10T04:58:33;14.10;99.90
7494;DHT22;3788;49.902;8.590;2023-05-10T05:01:05;14.10;99.90
7494;DHT22;3788;49.902;8.590;2023-05-10T05:03:32;14.20;99.90
7494;DHT22;3788;49.902;8.590;2023-05-10T05:05:59;14.20;99.90
7494;DHT22;3788;49.902;8.590;2023-05-10T05:08:26;14.20;99.90
7494;DHT22;3788;49.902;8.590;2023-05-10T05:10:54;14.10;99.90
7494;DHT22;3788;49.902;8.590;2023-05-10T05:13:21;14.20;99.90
7494;DHT22;3788;49.902;8.590;2023-05-10T05:15:47;14.20;99.90
7494;DHT22;3788;49.902;8.590;2023-05-10T05:18:14;14.10;99.90
7494;DHT22;3788;49.902;8.590;2023-05-10T05:20:41;14.10;99.90
7494;DHT22;3788;49.902;8.590;2023-05-10T05:23:08;14.20;99.90
7494;DHT22;3788;49.902;8.590;2023-05-10T05:25:34;14.10;99.90
7494;DHT22;3788;49.902;8.590;2023-05-10T05:28:03;14.20;99.90
7494;DHT22;3788;49.902;8.590;2023-05-10T05:30:30;14.10;99.90
7494;DHT22;3788;49.902;8.590;2023-05-10T05:32:57;14.10;99.90
7494;DHT22;3788;49.902;8.590;2023-05-10T05:35:24;14.10;99.90
7494;DHT22;3788;49.902;8.590;2023-05-10T05:37:50;14.10;99.90
7494;DHT22;3788;49.902;8.590;2023-05-10T05:40:17;14.10;99.90
7494;DHT22;3788;49.902;8.590;2023-05-10T05:42:44;14.10;99.90
7494;DHT22;3788;49.902;8.590;2023-05-10T05:45:12;14.20;99.90
7494;DHT22;3788;49.902;8.590;2023-05-10T05:47:39;14.20;99.90
7494;DHT22;3788;49.902;8.590;2023-05-10T05:50:07;14.20;99.90
7494;DHT22;3788;49.902;8.590;2023-05-10T05:52:33;14.30;99.90
7494;DHT22;3788;49.902;8.590;2023-05-10T05:55:01;14.30;99.90
7494;DHT22;3788;49.902;8.590;2023-05-10T05:57:28;14.30;99.90
7494;DHT22;3788;49.902;8.590;2023-05-10T05:59:54;14.30;99.90
7494;DHT22;3788;49.902;8.590;2023-05-10T06:02:22;14.40;99.90
7494;DHT22;3788;49.902;8.590;2023-05-10T06:04:49;14.40;99.90
7494;DHT22;3788;49.902;8.590;2023-05-10T06:07:16;14.50;99.90
7494;DHT22;3788;49.902;8.590;2023-05-10T06:09:43;14.60;99.90
7494;DHT22;3788;49.902;8.590;2023-05-10T06:12:10;14.60;99.90
7494;DHT22;3788;49.902;8.590;2023-05-10T06:14:37;14.60;99.90
7494;DHT22;3788;49.902;8.590;2023-05-10T06:17:04;14.70;99.90
7494;DHT22;3788;49.902;8.590;2023-05-10T06:19:33;14.70;99.90
7494;DHT22;3788;49.902;8.590;2023-05-10T06:22:00;14.70;99.90
7494;DHT22;3788;49.902;8.590;2023-05-10T06:24:26;14.80;99.90
7494;DHT22;3788;49.902;8.590;2023-05-10T06:26:53;14.80;99.90
7494;DHT22;3788;49.902;8.590;2023-05-10T06:29:20;14.90;99.90
7494;DHT22;3788;49.902;8.590;2023-05-10T06:31:47;14.90;99.90
7494;DHT22;3788;49.902;8.590;2023-05-10T06:34:14;15.00;99.90
7494;DHT22;3788;49.902;8.590;2023-05-10T06:36:42;15.00;99.90
7494;DHT22;3788;49.902;8.590;2023-05-10T06:39:09;15.00;99.90
7494;DHT22;3788;49.902;8.590;2023-05-10T06:41:37;15.10;99.90
7494;DHT22;3788;49.902;8.590;2023-05-10T06:44:03;15.10;99.90
7494;DHT22;3788;49.902;8.590;2023-05-10T06:46:30;15.10;99.90
7494;DHT22;3788;49.902;8.590;2023-05-10T06:48:57;15.10;99.90
7494;DHT22;3788;49.902;8.590;2023-05-10T06:51:24;15.10;99.90
7494;DHT22;3788;49.902;8.590;2023-05-10T06:53:52;15.10;99.90
7494;DHT22;3788;49.902;8.590;2023-05-10T06:56:18;15.20;99.90
7494;DHT22;3788;49.902;8.590;2023-05-10T06:58:46;15.20;99.90
7494;DHT22;3788;49.902;8.590;2023-05-10T07:01:13;15.30;99.90
7494;DHT22;3788;49.902;8.590;2023-05-10T07:03:40;15.40;99.90
7494;DHT22;3788;49.902;8.590;2023-05-10T07:06:07;15.40;99.90
7494;DHT22;3788;49.902;8.590;2023-05-10T07:08:34;15.50;99.90
7494;DHT22;3788;49.902;8.590;2023-05-10T07:11:03;15.40;99.90
7494;DHT22;3788;49.902;8.590;2023-05-10T07:13:30;15.50;99.90
7494;DHT22;3788;49.902;8.590;2023-05-10T07:15:57;15.60;99.90
7494;DHT22;3788;49.902;8.590;2023-05-10T07:18:24;15.60;99.90
7494;DHT22;3788;49.902;8.590;2023-05-10T07:20:51;15.70;99.90
7494;DHT22;3788;49.902;8.590;2023-05-10T07:23:18;15.80;99.90
7494;DHT22;3788;49.902;8.590;2023-05-10T07:25:45;15.90;99.90
7494;DHT22;3788;49.902;8.590;2023-05-10T07:28:14;16.10;99.90
7494;DHT22;3788;49.902;8.590;2023-05-10T07:30:41;16.20;99.90
7494;DHT22;3788;49.902;8.590;2023-05-10T07:33:08;16.40;99.90
7494;DHT22;3788;49.902;8.590;2023-05-10T07:35:35;16.50;99.90
7494;DHT22;3788;49.902;8.590;2023-05-10T07:38:02;16.60;99.90
7494;DHT22;3788;49.902;8.590;2023-05-10T07:40:29;16.80;99.90
7494;DHT22;3788;49.902;8.590;2023-05-10T07:42:56;16.90;99.90
7494;DHT22;3788;49.902;8.590;2023-05-10T07:45:24;16.90;99.90
7494;DHT22;3788;49.902;8.590;2023-05-10T07:47:51;16.90;99.90
7494;DHT22;3788;49.902;8.590;2023-05-10T07:50:17;16.80;99.90
7494;DHT22;3788;49.902;8.590;2023-05-10T07:52:44;16.80;99.90
7494;DHT22;3788;49.902;8.590;2023-05-10T07:55:11;16.80;99.90
7494;DHT22;3788;49.902;8.590;2023-05-10T07:57:38;16.80;99.90
7494;DHT22;3788;49.902;8.590;2023-05-10T08:00:05;16.80;99.90
7494;DHT22;3788;49.902;8.590;2023-05-10T08:02:35;16.70;99.90
7494;DHT22;3788;49.902;8.590;2023-05-10T08:05:01;16.70;99.90
7494;DHT22;3788;49.902;8.590;2023-05-10T08:07:28;16.70;99.90
7494;DHT22;3788;49.902;8.590;2023-05-10T08:09:55;16.60;99.90
7494;DHT22;3788;49.902;8.590;2023-05-10T08:12:21;16.60;99.90
7494;DHT22;3788;49.902;8.590;2023-05-10T08:14:48;16.70;99.90
7494;DHT22;3788;49.902;8.590;2023-05-10T08:17:15;16.70;99.90
7494;DHT22;3788;49.902;8.590;2023-05-10T08:19:43;16.60;99.90
7494;DHT22;3788;49.902;8.590;2023-05-10T08:22:10;16.50;99.90
7494;DHT22;3788;49.902;8.590;2023-05-10T08:24:36;16.40;99.90
7494;DHT22;3788;49.902;8.590;2023-05-10T08:27:04;16.40;99.90
7494;DHT22;3788;49.902;8.590;2023-05-10T08:29:31;16.30;99.90
7494;DHT22;3788;49.902;8.590;2023-05-10T08:31:58;16.20;99.90
7494;DHT22;3788;49.902;8.590;2023-05-10T08:34:26;16.10;99.90
7494;DHT22;3788;49.902;8.590;2023-05-10T08:36:54;15.90;99.90
7494;DHT22;3788;49.902;8.590;2023-05-10T08:39:20;15.80;99.90
7494;DHT22;3788;49.902;8.590;2023-05-10T08:41:51;15.70;99.90
7494;DHT22;3788;49.902;8.590;2023-05-10T08:44:20;15.70;99.90
7494;DHT22;3788;49.902;8.590;2023-05-10T08:46:49;15.80;99.90
7494;DHT22;3788;49.902;8.590;2023-05-10T08:49:20;15.80;99.90
7494;DHT22;3788;49.902;8.590;2023-05-10T08:51:50;15.90;99.90
7494;DHT22;3788;49.902;8.590;2023-05-10T08:54:19;16.10;99.90
7494;DHT22;3788;49.902;8.590;2023-05-10T08:56:47;16.20;99.90
7494;DHT22;3788;49.902;8.590;2023-05-10T08:59:13;16.40;99.90
7494;DHT22;3788;49.902;8.590;2023-05-10T09:01:43;16.50;99.90
7494;DHT22;3788;49.902;8.590;2023-05-10T09:04:11;16.60;99.90
7494;DHT22;3788;49.902;8.590;2023-05-10T09:06:38;16.60;99.90
7494;DHT22;3788;49.902;8.590;2023-05-10T09:09:05;16.60;99.90
7494;DHT22;3788;49.902;8.590;2023-05-10T09:11:33;16.60;99.90
7494;DHT22;3788;49.902;8.590;2023-05-10T09:14:01;16.60;99.90
7494;DHT22;3788;49.902;8.590;2023-05-10T09:16:28;16.60;99.90
7494;DHT22;3788;49.902;8.590;2023-05-10T09:18:54;16.60;99.90
7494;DHT22;3788;49.902;8.590;2023-05-10T09:21:21;16.70;99.90
7494;DHT22;3788;49.902;8.590;2023-05-10T09:23:48;16.80;99.90
7494;DHT22;3788;49.902;8.590;2023-05-10T09:26:16;16.90;99.90
7494;DHT22;3788;49.902;8.590;2023-05-10T09:28:54;17.10;99.90
7494;DHT22;3788;49.902;8.590;2023-05-10T09:31:22;17.30;99.90
7494;DHT22;3788;49.902;8.590;2023-05-10T09:33:51;17.40;99.90
7494;DHT22;3788;49.902;8.590;2023-05-10T09:36:17;17.50;99.90
7494;DHT22;3788;49.902;8.590;2023-05-10T09:38:48;17.40;99.90
7494;DHT22;3788;49.902;8.590;2023-05-10T09:41:18;17.20;99.90
7494;DHT22;3788;49.902;8.590;2023-05-10T09:43:46;17.00;99.90
7494;DHT22;3788;49.902;8.590;2023-05-10T09:46:14;16.90;99.90
7494;DHT22;3788;49.902;8.590;2023-05-10T09:48:43;16.70;99.90
7494;DHT22;3788;49.902;8.590;2023-05-10T09:51:10;16.60;99.90
7494;DHT22;3788;49.902;8.590;2023-05-10T09:53:36;16.50;99.90
7494;DHT22;3788;49.902;8.590;2023-05-10T09:56:03;16.50;99.90
7494;DHT22;3788;49.902;8.590;2023-05-10T09:58:30;16.60;99.90
7494;DHT22;3788;49.902;8.590;2023-05-10T10:00:57;16.70;99.90
7494;DHT22;3788;49.902;8.590;2023-05-10T10:03:25;16.70;99.90
7494;DHT22;3788;49.902;8.590;2023-05-10T10:05:52;16.80;99.90
7494;DHT22;3788;49.902;8.590;2023-05-10T10:08:21;16.80;99.90
7494;DHT22;3788;49.902;8.590;2023-05-10T10:10:49;16.90;99.90
7494;DHT22;3788;49.902;8.590;2023-05-10T10:13:17;17.00;99.90
7494;DHT22;3788;49.902;8.590;2023-05-10T10:15:43;17.20;99.90
7494;DHT22;3788;49.902;8.590;2023-05-10T10:18:13;17.40;99.90
7494;DHT22;3788;49.902;8.590;2023-05-10T10:20:42;17.60;99.90
7494;DHT22;3788;49.902;8.590;2023-05-10T10:23:08;17.70;99.90
7494;DHT22;3788;49.902;8.590;2023-05-10T10:25:35;17.80;99.90
7494;DHT22;3788;49.902;8.590;2023-05-10T10:28:16;17.90;99.90
7494;DHT22;3788;49.902;8.590;2023-05-10T10:30:48;18.00;99.90
7494;DHT22;3788;49.902;8.590;2023-05-10T10:33:40;18.00;99.90
7494;DHT22;3788;49.902;8.590;2023-05-10T10:36:15;18.00;99.90
7494;DHT22;3788;49.902;8.590;2023-05-10T10:38:55;18.00;99.90
7494;DHT22;3788;49.902;8.590;2023-05-10T10:41:30;17.90;99.90
7494;DHT22;3788;49.902;8.590;2023-05-10T10:44:22;17.90;99.90
7494;DHT22;3788;49.902;8.590;2023-05-10T10:46:59;17.80;99.90
7494;DHT22;3788;49.902;8.590;2023-05-10T10:49:26;17.60;99.90
7494;DHT22;3788;49.902;8.590;2023-05-10T10:52:20;17.40;99.90
7494;DHT22;3788;49.902;8.590;2023-05-10T10:54:50;17.20;99.90
7494;DHT22;3788;49.902;8.590;2023-05-10T10:57:19;17.00;99.90
7494;DHT22;3788;49.902;8.590;2023-05-10T10:59:47;16.80;99.90
7494;DHT22;3788;49.902;8.590;2023-05-10T11:02:33;16.70;99.90
7494;DHT22;3788;49.902;8.590;2023-05-10T11:05:04;16.60;99.90
7494;DHT22;3788;49.902;8.590;2023-05-10T11:07:54;16.50;99.90
7494;DHT22;3788;49.902;8.590;2023-05-10T11:10:21;16.40;99.90
7494;DHT22;3788;49.902;8.590;2023-05-10T11:12:52;16.40;99.90
7494;DHT22;3788;49.902;8.590;2023-05-10T11:15:19;16.40;99.90
7494;DHT22;3788;49.902;8.590;2023-05-10T11:17:47;16.40;99.90
7494;DHT22;3788;49.902;8.590;2023-05-10T11:20:17;16.30;99.90
7494;DHT22;3788;49.902;8.590;2023-05-10T11:22:51;16.40;99.90
7494;DHT22;3788;49.902;8.590;2023-05-10T11:25:19;16.40;99.90
7494;DHT22;3788;49.902;8.590;2023-05-10T11:27:48;16.40;99.90
7494;DHT22;3788;49.902;8.590;2023-05-10T11:30:14;16.50;99.90
7494;DHT22;3788;49.902;8.590;2023-05-10T11:32:42;16.60;99.90
7494;DHT22;3788;49.902;8.590;2023-05-10T11:35:09;16.80;99.90
7494;DHT22;3788;49.902;8.590;2023-05-10T11:37:36;17.10;99.90
7494;DHT22;3788;49.902;8.590;2023-05-10T11:40:07;17.50;99.90
7494;DHT22;3788;49.902;8.590;2023-05-10T11:42:37;17.80;98.70
7494;DHT22;3788;49.902;8.590;2023-05-10T11:45:05;18.10;97.60
7494;DHT22;3788;49.902;8.590;2023-05-10T11:47:32;18.30;96.80
7494;DHT22;3788;49.902;8.590;2023-05-10T11:50:00;18.60;95.30
7494;DHT22;3788;49.902;8.590;2023-05-10T11:52:27;18.80;94.40
7494;DHT22;3788;49.902;8.590;2023-05-10T11:54:54;19.00;94.20
7494;DHT22;3788;49.902;8.590;2023-05-10T11:57:26;19.10;93.50
7494;DHT22;3788;49.902;8.590;2023-05-10T11:59:54;19.20;93.60
7494;DHT22;3788;49.902;8.590;2023-05-10T12:02:22;19.30;93.70
7494;DHT22;3788;49.902;8.590;2023-05-10T12:04:49;19.50;93.20
7494;DHT22;3788;49.902;8.590;2023-05-10T12:07:16;19.50;92.70
7494;DHT22;3788;49.902;8.590;2023-05-10T12:09:43;19.60;92.70
7494;DHT22;3788;49.902;8.590;2023-05-10T12:12:10;19.60;92.90
7494;DHT22;3788;49.902;8.590;2023-05-10T12:14:37;19.70;93.10
7494;DHT22;3788;49.902;8.590;2023-05-10T12:17:05;19.80;92.80
7494;DHT22;3788;49.902;8.590;2023-05-10T12:19:37;19.90;92.60
7494;DHT22;3788;49.902;8.590;2023-05-10T12:22:04;19.90;92.60
7494;DHT22;3788;49.902;8.590;2023-05-10T12:24:34;19.90;92.70
7494;DHT22;3788;49.902;8.590;2023-05-10T12:27:04;20.00;92.50
7494;DHT22;3788;49.902;8.590;2023-05-10T12:29:32;19.90;92.50
7494;DHT22;3788;49.902;8.590;2023-05-10T12:31:59;19.90;92.20
7494;DHT22;3788;49.902;8.590;2023-05-10T12:34:31;19.80;92.30
7494;DHT22;3788;49.902;8.590;2023-05-10T12:36:58;19.70;92.30
7494;DHT22;3788;49.902;8.590;2023-05-10T12:39:25;19.70;91.40
7494;DHT22;3788;49.902;8.590;2023-05-10T12:41:52;19.70;90.90
7494;DHT22;3788;49.902;8.590;2023-05-10T12:44:19;19.80;90.40
7494;DHT22;3788;49.902;8.590;2023-05-10T12:46:45;19.90;90.70
7494;DHT22;3788;49.902;8.590;2023-05-10T12:49:12;19.90;90.40
7494;DHT22;3788;49.902;8.590;2023-05-10T12:51:40;19.90;90.40
7494;DHT22;3788;49.902;8.590;2023-05-10T12:54:06;19.90;90.40
7494;DHT22;3788;49.902;8.590;2023-05-10T12:56:33;19.90;88.80
7494;DHT22;3788;49.902;8.590;2023-05-10T12:59:00;19.80;90.00
7494;DHT22;3788;49.902;8.590;2023-05-10T13:01:26;19.90;90.60
7494;DHT22;3788;49.902;8.590;2023-05-10T13:03:53;19.90;90.90
7494;DHT22;3788;49.902;8.590;2023-05-10T13:06:20;19.90;90.50
7494;DHT22;3788;49.902;8.590;2023-05-10T13:08:48;19.80;90.00
7494;DHT22;3788;49.902;8.590;2023-05-10T13:11:15;19.70;90.30
7494;DHT22;3788;49.902;8.590;2023-05-10T13:13:42;19.60;87.20
7494;DHT22;3788;49.902;8.590;2023-05-10T13:16:09;19.60;85.80
7494;DHT22;3788;49.902;8.590;2023-05-10T13:18:35;19.50;86.40
7494;DHT22;3788;49.902;8.590;2023-05-10T13:21:02;19.50;85.50
7494;DHT22;3788;49.902;8.590;2023-05-10T13:23:29;19.40;85.70
7494;DHT22;3788;49.902;8.590;2023-05-10T13:25:57;19.40;88.30
7494;DHT22;3788;49.902;8.590;2023-05-10T13:28:24;19.30;90.30
7494;DHT22;3788;49.902;8.590;2023-05-10T13:30:51;19.20;90.80
7494;DHT22;3788;49.902;8.590;2023-05-10T13:33:18;19.10;91.10
7494;DHT22;3788;49.902;8.590;2023-05-10T13:35:45;19.00;91.40
7494;DHT22;3788;49.902;8.590;2023-05-10T13:38:12;19.00;91.40
7494;DHT22;3788;49.902;8.590;2023-05-10T13:40:39;18.90;91.60
7494;DHT22;3788;49.902;8.590;2023-05-10T13:43:07;18.90;91.70
7494;DHT22;3788;49.902;8.590;2023-05-10T13:45:33;19.00;91.80
7494;DHT22;3788;49.902;8.590;2023-05-10T13:48:00;19.00;91.40
7494;DHT22;3788;49.902;8.590;2023-05-10T13:50:27;19.10;91.50
7494;DHT22;3788;49.902;8.590;2023-05-10T13:52:54;19.30;91.50
7494;DHT22;3788;49.902;8.590;2023-05-10T13:55:21;19.40;91.20
7494;DHT22;3788;49.902;8.590;2023-05-10T13:57:48;19.50;91.50
7494;DHT22;3788;49.902;8.590;2023-05-10T14:00:17;19.60;91.20
7494;DHT22;3788;49.902;8.590;2023-05-10T14:02:44;19.60;90.40
7494;DHT22;3788;49.902;8.590;2023-05-10T14:05:10;19.50;90.50
7494;DHT22;3788;49.902;8.590;2023-05-10T14:07:37;19.50;90.60
7494;DHT22;3788;49.902;8.590;2023-05-10T14:10:04;19.50;90.60
7494;DHT22;3788;49.902;8.590;2023-05-10T14:12:31;19.50;90.70
7494;DHT22;3788;49.902;8.590;2023-05-10T14:14:58;19.50;90.90
7494;DHT22;3788;49.902;8.590;2023-05-10T14:17:26;19.60;90.90
7494;DHT22;3788;49.902;8.590;2023-05-10T14:19:53;19.50;90.80
7494;DHT22;3788;49.902;8.590;2023-05-10T14:22:20;19.50;90.40
7494;DHT22;3788;49.902;8.590;2023-05-10T14:24:47;19.40;90.60
7494;DHT22;3788;49.902;8.590;2023-05-10T14:27:14;19.20;90.80
7494;DHT22;3788;49.902;8.590;2023-05-10T14:29:41;19.10;90.90
7494;DHT22;3788;49.902;8.590;2023-05-10T14:32:08;19.00;91.10
7494;DHT22;3788;49.902;8.590;2023-05-10T14:34:36;18.90;91.10
7494;DHT22;3788;49.902;8.590;2023-05-10T14:37:03;18.90;91.40
7494;DHT22;3788;49.902;8.590;2023-05-10T14:39:29;18.80;91.60
7494;DHT22;3788;49.902;8.590;2023-05-10T14:41:56;18.80;92.00
7494;DHT22;3788;49.902;8.590;2023-05-10T14:44:24;18.80;92.00
7494;DHT22;3788;49.902;8.590;2023-05-10T14:46:51;18.80;91.90
7494;DHT22;3788;49.902;8.590;2023-05-10T14:49:19;18.80;92.00
7494;DHT22;3788;49.902;8.590;2023-05-10T14:51:49;18.80;92.20
7494;DHT22;3788;49.902;8.590;2023-05-10T14:54:16;18.90;92.20
7494;DHT22;3788;49.902;8.590;2023-05-10T14:56:43;18.90;92.20
7494;DHT22;3788;49.902;8.590;2023-05-10T14:59:10;19.00;92.10
7494;DHT22;3788;49.902;8.590;2023-05-10T15:01:37;19.00;91.90
7494;DHT22;3788;49.902;8.590;2023-05-10T15:04:03;19.00;91.70
7494;DHT22;3788;49.902;8.590;2023-05-10T15:06:31;19.00;91.60
7494;DHT22;3788;49.902;8.590;2023-05-10T15:08:59;19.00;91.70
7494;DHT22;3788;49.902;8.590;2023-05-10T15:11:26;19.00;91.70
7494;DHT22;3788;49.902;8.590;2023-05-10T15:13:53;18.90;91.60
7494;DHT22;3788;49.902;8.590;2023-05-10T15:16:20;18.90;91.90
7494;DHT22;3788;49.902;8.590;2023-05-10T15:18:47;18.90;92.00
7494;DHT22;3788;49.902;8.590;2023-05-10T15:21:13;18.90;92.10
7494;DHT22;3788;49.902;8.590;2023-05-10T15:23:40;18.90;92.30
7494;DHT22;3788;49.902;8.590;2023-05-10T15:26:09;18.80;92.40
7494;DHT22;3788;49.902;8.590;2023-05-10T15:28:35;18.80;92.10
7494;DHT22;3788;49.902;8.590;2023-05-10T15:31:02;18.80;91.90
7494;DHT22;3788;49.902;8.590;2023-05-10T15:33:28;18.80;92.00
7494;DHT22;3788;49.902;8.590;2023-05-10T15:35:55;18.70;92.00
7494;DHT22;3788;49.902;8.590;2023-05-10T15:38:22;18.70;91.10
7494;DHT22;3788;49.902;8.590;2023-05-10T15:40:48;18.70;91.10
7494;DHT22;3788;49.902;8.590;2023-05-10T15:43:17;18.80;91.00
7494;DHT22;3788;49.902;8.590;2023-05-10T15:45:43;18.80;90.60
7494;DHT22;3788;49.902;8.590;2023-05-10T15:48:10;18.80;90.40
7494;DHT22;3788;49.902;8.590;2023-05-10T15:50:37;18.80;89.60
7494;DHT22;3788;49.902;8.590;2023-05-10T15:53:05;18.90;89.60
7494;DHT22;3788;49.902;8.590;2023-05-10T15:55:32;18.90;88.20
7494;DHT22;3788;49.902;8.590;2023-05-10T15:57:59;18.80;88.30
7494;DHT22;3788;49.902;8.590;2023-05-10T16:00:27;18.80;88.20
7494;DHT22;3788;49.902;8.590;2023-05-10T16:02:54;18.80;88.10
7494;DHT22;3788;49.902;8.590;2023-05-10T16:05:21;18.80;88.50
7494;DHT22;3788;49.902;8.590;2023-05-10T16:07:48;18.80;88.40
7494;DHT22;3788;49.902;8.590;2023-05-10T16:10:15;18.70;88.90
7494;DHT22;3788;49.902;8.590;2023-05-10T16:12:42;18.70;88.10